Time;durP1;ratioP1;P1;durP2;ratioP2;P2;SDS_P1;SDS_P2;PMS_P1;PMS_P2;Temp;Humidity;BMP_temperature;BMP_pressure;BME280_temperature;BME280_humidity;BME280_pressure;Samples;Min_cycle;Max_cycle;Signal;HPM_P1;HPM_P2
2023/10/29 00:01:37;;;;;;;;;0.00;0.00;;;;;13.39;100.00;99112.75;5080250;27;45247;-67
2023/10/29 00:04:03;;;;;;;;;0.00;0.00;;;;;13.42;100.00;99123.13;5079894;27;45470;-67
2023/10/29 00:06:28;;;;;;;;;0.00;0.00;;;;;13.43;100.00;99100.91;5080007;27;45446;-67
2023/10/29 00:08:54;;;;;;;;;0.00;0.00;;;;;13.44;100.00;99118.53;5079930;27;45292;-67
2023/10/29 00:11:20;;;;;;;;;0.00;0.00;;;;;13.40;100.00;99087.06;5080102;27;45329;-67
2023/10/29 00:13:45;;;;;;;;;0.00;0.00;;;;;13.45;100.00;99096.31;5089918;27;46204;-67
2023/10/29 00:16:13;;;;;;;;;0.00;0.00;;;;;13.48;100.00;99095.22;5100333;27;45533;-67
2023/10/29 00:18:40;;;;;;;;;0.00;0.00;;;;;13.49;100.00;99100.38;5100150;27;45382;-67
2023/10/29 00:21:05;;;;;;;;;0.00;0.00;;;;;13.40;100.00;99071.97;5100334;27;45361;-67
2023/10/29 00:23:32;;;;;;;;;0.00;0.00;;;;;13.54;100.00;99073.44;5098894;27;47227;-67
2023/10/29 00:25:57;;;;;;;;;0.00;0.00;;;;;13.54;100.00;99076.94;5100321;27;45318;-67
2023/10/29 00:28:23;;;;;;;;;0.00;0.00;;;;;13.59;100.00;99081.84;5100207;27;45312;-67
2023/10/29 00:30:48;;;;;;;;;0.00;0.00;;;;;13.64;100.00;99079.63;5099964;27;45610;-67
2023/10/29 00:33:14;;;;;;;;;0.00;0.00;;;;;13.65;100.00;99104.34;5100145;27;45212;-67
2023/10/29 00:35:39;;;;;;;;;0.33;0.00;;;;;13.68;100.00;99073.06;5099864;27;45222;-67
2023/10/29 00:38:05;;;;;;;;;0.00;0.00;;;;;13.50;100.00;99045.44;5100374;27;45222;-67
2023/10/29 00:40:30;;;;;;;;;0.67;0.00;;;;;13.73;100.00;99048.75;5099988;27;45311;-67
2023/10/29 00:42:59;;;;;;;;;0.00;0.00;;;;;13.61;100.00;99020.63;5099852;27;45294;-67
2023/10/29 00:45:25;;;;;;;;;0.00;0.00;;;;;13.79;100.00;99051.72;5099875;27;45360;-67
2023/10/29 00:47:50;;;;;;;;;0.00;0.00;;;;;13.66;100.00;99034.31;5098889;27;45683;-67
2023/10/29 00:50:16;;;;;;;;;0.67;0.00;;;;;13.82;100.00;99048.78;5099798;27;45171;-67
2023/10/29 00:52:42;;;;;;;;;0.00;0.00;;;;;13.69;100.00;99018.97;5099954;27;45374;-67
2023/10/29 00:55:10;;;;;;;;;0.00;0.00;;;;;13.90;100.00;99048.13;5103246;27;45216;-67
2023/10/29 00:57:37;;;;;;;;;0.00;0.00;;;;;13.91;100.00;99047.13;5103422;27;45229;-67
2023/10/29 01:00:03;;;;;;;;;0.67;0.00;;;;;13.86;100.00;99055.50;5103047;27;45440;-67
2023/10/29 01:02:31;;;;;;;;;0.00;0.00;;;;;13.96;100.00;99056.38;5103147;27;45340;-67
2023/10/29 01:04:57;;;;;;;;;2.00;0.00;;;;;13.99;100.00;99071.22;5103385;27;45313;-67
2023/10/29 01:07:23;;;;;;;;;0.00;0.00;;;;;14.05;100.00;99075.97;5103444;27;45238;-67
2023/10/29 01:09:50;;;;;;;;;0.00;0.00;;;;;14.07;100.00;99090.81;5103173;27;45176;-67
2023/10/29 01:12:19;;;;;;;;;1.33;0.00;;;;;14.09;100.00;99088.03;5102960;27;46988;-67
2023/10/29 01:14:45;;;;;;;;;2.00;0.00;;;;;14.12;100.00;99098.38;5082305;27;45243;-67
2023/10/29 01:17:11;;;;;;;;;0.00;0.00;;;;;14.11;100.00;99091.38;5082800;27;45270;-67
2023/10/29 01:19:37;;;;;;;;;0.00;0.00;;;;;14.05;100.00;99074.16;5082446;27;45345;-67
2023/10/29 01:22:03;;;;;;;;;1.00;0.00;;;;;14.18;100.00;99108.47;5082649;27;46087;-67
2023/10/29 01:24:28;;;;;;;;;1.33;0.00;;;;;14.09;100.00;99072.94;5082652;27;45332;-67
2023/10/29 01:26:54;;;;;;;;;1.00;0.00;;;;;14.27;100.00;99109.47;5082803;27;45456;-67
2023/10/29 01:29:20;;;;;;;;;0.00;0.00;;;;;14.25;100.00;99095.47;5082328;27;45198;-67
2023/10/29 01:31:48;;;;;;;;;0.00;0.00;;;;;14.32;100.00;99137.34;5082182;27;46117;-67
2023/10/29 01:34:14;;;;;;;;;0.00;0.00;;;;;14.33;100.00;99117.75;5082479;27;45407;-67
2023/10/29 01:36:40;;;;;;;;;0.00;0.00;;;;;14.28;100.00;99111.16;5082321;27;45298;-67
2023/10/29 01:39:05;;;;;;;;;0.00;0.00;;;;;14.24;100.00;99107.91;5082385;27;45289;-67
2023/10/29 01:41:31;;;;;;;;;1.00;0.00;;;;;14.34;100.00;99122.13;5080962;28;47367;-67
2023/10/29 01:43:57;;;;;;;;;0.00;0.00;;;;;14.34;100.00;99127.44;5082108;27;45445;-67
2023/10/29 01:46:23;;;;;;;;;0.00;0.00;;;;;14.35;100.00;99125.63;5082146;27;45204;-67
2023/10/29 01:48:49;;;;;;;;;2.67;1.00;;;;;14.31;100.00;99132.16;5082786;27;45507;-67
2023/10/29 01:51:14;;;;;;;;;0.00;0.00;;;;;14.28;100.00;99137.75;5081868;27;45967;-67
2023/10/29 01:53:39;;;;;;;;;2.00;0.00;;;;;14.30;100.00;99126.00;5082319;27;45217;-67
2023/10/29 01:56:08;;;;;;;;;0.67;0.00;;;;;14.22;100.00;99123.19;5082028;27;45246;-67
2023/10/29 01:58:37;;;;;;;;;0.67;0.67;;;;;14.32;100.00;99148.00;5081907;27;45286;-67
2023/10/29 02:01:11;;;;;;;;;1.67;0.00;;;;;14.42;100.00;99153.34;5081806;28;46151;-67
2023/10/29 02:03:37;;;;;;;;;1.00;1.00;;;;;14.45;100.00;99177.03;5080312;28;45277;-67
2023/10/29 02:06:04;;;;;;;;;3.00;0.00;;;;;14.51;100.00;99163.16;5081943;27;45390;-67
2023/10/29 02:08:29;;;;;;;;;1.00;0.67;;;;;14.35;100.00;99128.28;5081787;28;45261;-67
2023/10/29 02:10:54;;;;;;;;;0.50;0.50;;;;;14.52;100.00;99157.72;5081688;27;46225;-66
2023/10/29 02:13:20;;;;;;;;;1.00;0.00;;;;;14.52;100.00;99162.19;5088490;27;45180;-67
2023/10/29 02:15:45;;;;;;;;;0.67;0.33;;;;;14.53;100.00;99169.19;5101019;27;45455;-67
2023/10/29 02:18:11;;;;;;;;;0.00;0.00;;;;;14.42;100.00;99148.88;5102162;27;45370;-67
2023/10/29 02:20:37;;;;;;;;;1.67;0.00;;;;;14.51;100.00;99171.16;5101877;27;46875;-67
2023/10/29 02:23:02;;;;;;;;;1.00;0.00;;;;;14.38;100.00;99178.53;5102071;27;45324;-67
2023/10/29 02:25:28;;;;;;;;;0.00;0.00;;;;;14.42;100.00;99183.47;5102157;27;45400;-67
2023/10/29 02:27:53;;;;;;;;;0.00;0.00;;;;;14.43;100.00;99184.31;5101905;27;45261;-67
2023/10/29 02:30:19;;;;;;;;;1.67;0.00;;;;;14.29;100.00;99169.53;5101947;27;45295;-67
2023/10/29 02:32:45;;;;;;;;;1.00;1.00;;;;;14.36;100.00;99197.31;5101851;27;45310;-67
2023/10/29 02:35:11;;;;;;;;;3.00;1.00;;;;;14.25;100.00;99186.72;5102081;27;45245;-67
2023/10/29 02:37:36;;;;;;;;;1.67;0.00;;;;;14.35;100.00;99202.75;5101908;27;45196;-67
2023/10/29 02:40:03;;;;;;;;;1.00;1.00;;;;;14.32;100.00;99219.78;5101763;27;45221;-67
2023/10/29 02:42:28;;;;;;;;;0.00;0.00;;;;;14.30;100.00;99221.72;5101148;27;45275;-67
2023/10/29 02:44:54;;;;;;;;;0.67;0.00;;;;;14.27;100.00;99229.13;5101909;27;45245;-67
2023/10/29 02:47:20;;;;;;;;;2.00;0.67;;;;;14.12;100.00;99212.72;5101622;27;45415;-67
2023/10/29 02:49:45;;;;;;;;;3.33;1.00;;;;;14.10;100.00;99215.47;5101404;27;46340;-67
2023/10/29 02:52:10;;;;;;;;;0.33;0.33;;;;;14.18;100.00;99237.91;5101631;27;45262;-67
2023/10/29 02:54:36;;;;;;;;;3.00;0.00;;;;;14.15;100.00;99243.50;5101581;27;45324;-67
2023/10/29 02:57:02;;;;;;;;;1.00;0.00;;;;;14.09;100.00;99237.75;5101479;27;45284;-67
2023/10/29 02:59:28;;;;;;;;;2.33;0.00;;;;;13.86;100.00;99201.69;5101223;27;46397;-67
2023/10/29 03:01:53;;;;;;;;;2.67;0.00;;;;;14.06;100.00;99243.34;5101340;27;45300;-67
2023/10/29 03:04:19;;;;;;;;;4.67;2.00;;;;;14.08;100.00;99232.56;5101549;27;45324;-67
2023/10/29 03:06:44;;;;;;;;;0.00;0.00;;;;;14.02;100.00;99235.75;5100308;27;45480;-67
2023/10/29 03:09:10;;;;;;;;;0.00;0.00;;;;;14.03;100.00;99234.78;5101382;27;45288;-67
2023/10/29 03:11:35;;;;;;;;;1.00;0.00;;;;;14.02;100.00;99238.41;5101326;27;45215;-68
2023/10/29 03:14:01;;;;;;;;;1.67;1.00;;;;;13.97;100.00;99245.94;5087453;27;45284;-67
2023/10/29 03:16:26;;;;;;;;;2.00;1.33;;;;;13.84;100.00;99232.03;5079515;27;45289;-67
2023/10/29 03:18:52;;;;;;;;;0.00;0.00;;;;;13.97;100.00;99246.75;5080578;27;45207;-67
2023/10/29 03:21:17;;;;;;;;;0.67;0.67;;;;;13.81;100.00;99230.44;5080778;27;45270;-67
2023/10/29 03:23:43;;;;;;;;;1.33;0.67;;;;;13.84;100.00;99235.50;5080968;27;45315;-67
2023/10/29 03:26:08;;;;;;;;;2.33;0.67;;;;;13.80;100.00;99239.41;5080689;27;45230;-67
2023/10/29 03:28:35;;;;;;;;;1.00;0.00;;;;;13.88;100.00;99247.56;5080414;27;45290;-67
2023/10/29 03:31:01;;;;;;;;;0.33;0.00;;;;;13.84;100.00;99240.00;5080562;27;45261;-67
2023/10/29 03:33:27;;;;;;;;;1.00;1.00;;;;;13.82;100.00;99252.56;5080714;27;45313;-68
2023/10/29 03:35:52;;;;;;;;;1.33;0.67;;;;;13.80;100.00;99259.81;5080396;28;45304;-67
2023/10/29 03:38:18;;;;;;;;;0.00;0.00;;;;;13.77;100.00;99266.25;5080355;27;46457;-67
2023/10/29 03:40:44;;;;;;;;;1.33;0.33;;;;;13.70;100.00;99258.91;5080560;27;45305;-67
2023/10/29 03:43:09;;;;;;;;;6.00;0.33;;;;;13.67;100.00;99260.03;5080158;28;45250;-67
2023/10/29 03:45:35;;;;;;;;;1.00;0.33;;;;;13.66;100.00;99258.31;5080523;28;45472;-68
2023/10/29 03:48:00;;;;;;;;;2.00;0.00;;;;;13.58;100.00;99253.66;5080187;27;45961;-67
2023/10/29 03:50:26;;;;;;;;;2.00;1.00;;;;;13.68;100.00;99279.47;5080431;28;45180;-67
2023/10/29 03:52:51;;;;;;;;;3.67;1.00;;;;;13.58;100.00;99266.09;5079367;28;45292;-68
2023/10/29 03:55:17;;;;;;;;;2.67;0.00;;;;;13.58;100.00;99252.81;5080378;27;45546;-68
2023/10/29 03:57:42;;;;;;;;;1.00;0.00;;;;;13.62;100.00;99272.84;5078823;28;47189;-67
2023/10/29 04:00:09;;;;;;;;;2.00;1.00;;;;;13.60;100.00;99285.41;5080223;27;45299;-67
2023/10/29 04:02:34;;;;;;;;;1.67;1.00;;;;;13.58;100.00;99282.03;5080069;27;45306;-67
2023/10/29 04:05:00;;;;;;;;;0.00;0.00;;;;;13.54;100.00;99275.31;5080207;27;45518;-67
2023/10/29 04:07:25;;;;;;;;;1.67;0.00;;;;;13.54;100.00;99272.66;5078756;28;47423;-67
2023/10/29 04:09:51;;;;;;;;;4.33;1.00;;;;;13.47;100.00;99277.63;5080114;27;45318;-67
2023/10/29 04:12:16;;;;;;;;;3.00;0.67;;;;;13.46;100.00;99281.25;5080161;28;45384;-67
2023/10/29 04:14:42;;;;;;;;;1.00;1.00;;;;;13.47;100.00;99279.44;5096867;27;45510;-67
2023/10/29 04:17:09;;;;;;;;;1.67;0.33;;;;;13.44;100.00;99277.03;5099871;27;45296;-67
2023/10/29 04:19:36;;;;;;;;;3.00;1.00;;;;;13.41;100.00;99282.59;5100091;27;45401;-68
2023/10/29 04:22:02;;;;;;;;;3.67;1.00;;;;;13.38;100.00;99289.00;5100397;27;45332;-67
2023/10/29 04:24:28;;;;;;;;;2.00;0.67;;;;;13.31;100.00;99268.41;5099037;27;46137;-67
2023/10/29 04:26:54;;;;;;;;;2.00;0.00;;;;;13.19;100.00;99269.38;5100682;27;45277;-67
2023/10/29 04:29:21;;;;;;;;;2.00;2.00;;;;;13.29;100.00;99302.19;5103659;27;45320;-67
2023/10/29 04:31:47;;;;;;;;;2.67;1.00;;;;;13.16;100.00;99291.72;5103382;27;45287;-68
2023/10/29 04:34:13;;;;;;;;;3.33;0.00;;;;;13.21;100.00;99313.44;5103698;27;45443;-67
2023/10/29 04:36:48;;;;;;;;;3.33;1.67;;;;;13.20;100.00;99316.22;5103645;27;45334;-67
2023/10/29 04:39:14;;;;;;;;;0.33;0.33;;;;;13.20;100.00;99302.94;5103767;27;45295;-67
2023/10/29 04:41:39;;;;;;;;;2.67;1.00;;;;;13.19;100.00;99311.88;5103871;27;45509;-67
2023/10/29 04:44:07;;;;;;;;;1.00;0.00;;;;;13.15;100.00;99297.19;5103128;27;45273;-67
2023/10/29 04:46:32;;;;;;;;;9.33;1.00;;;;;13.10;100.00;99300.19;5103591;27;46331;-68
2023/10/29 04:48:58;;;;;;;;;2.67;0.67;;;;;13.07;100.00;99303.06;5102153;27;45670;-67
2023/10/29 04:51:23;;;;;;;;;4.33;0.00;;;;;13.03;100.00;99310.44;5103764;27;45277;-68
2023/10/29 04:53:49;;;;;;;;;2.67;1.00;;;;;13.03;100.00;99304.28;5103377;27;45465;-67
2023/10/29 04:56:14;;;;;;;;;2.00;0.00;;;;;12.99;100.00;99290.41;5103313;27;45191;-68
2023/10/29 04:58:39;;;;;;;;;3.67;1.00;;;;;12.95;100.00;99288.16;5103158;27;45331;-67
2023/10/29 05:01:05;;;;;;;;;1.00;0.00;;;;;12.87;100.00;99288.75;5103567;27;45252;-67
2023/10/29 05:03:30;;;;;;;;;2.00;0.67;;;;;12.87;100.00;99303.84;5103139;27;45474;-67
2023/10/29 05:05:56;;;;;;;;;1.00;1.00;;;;;12.83;100.00;99302.38;5103362;27;45658;-68
2023/10/29 05:08:21;;;;;;;;;2.33;1.00;;;;;12.62;100.00;99274.94;5102065;27;45787;-67
2023/10/29 05:10:47;;;;;;;;;4.00;3.00;;;;;12.80;100.00;99289.38;5103471;27;45371;-67
2023/10/29 05:13:13;;;;;;;;;4.00;1.00;;;;;12.71;100.00;99288.31;5097163;27;45289;-67
2023/10/29 05:15:38;;;;;;;;;2.00;1.00;;;;;12.66;100.00;99284.34;5082448;27;45294;-67
2023/10/29 05:18:04;;;;;;;;;0.00;0.00;;;;;12.72;100.00;99292.66;5082516;27;45288;-67
2023/10/29 05:20:29;;;;;;;;;2.67;0.33;;;;;12.56;100.00;99278.94;5082875;27;45448;-68
2023/10/29 05:22:55;;;;;;;;;2.00;1.00;;;;;12.65;100.00;99299.41;5082510;27;45373;-67
2023/10/29 05:25:20;;;;;;;;;3.33;1.00;;;;;12.53;100.00;99295.09;5082547;27;45958;-67
2023/10/29 05:27:55;;;;;;;;;4.00;1.00;;;;;12.56;100.00;99300.16;5082378;27;45297;-67
2023/10/29 05:30:21;;;;;;;;;1.67;1.00;;;;;12.53;100.00;99287.13;5082663;27;45366;-67
2023/10/29 05:32:47;;;;;;;;;5.00;2.00;;;;;12.47;100.00;99288.44;5082002;27;45436;-67
2023/10/29 05:35:13;;;;;;;;;2.67;0.33;;;;;12.42;100.00;99289.78;5082186;27;45943;-67
2023/10/29 05:37:38;;;;;;;;;1.00;1.00;;;;;12.39;100.00;99296.16;5082200;28;45148;-67
2023/10/29 05:40:06;;;;;;;;;4.00;1.00;;;;;12.36;100.00;99293.75;5081673;27;45268;-67
2023/10/29 05:42:31;;;;;;;;;4.33;0.33;;;;;12.23;100.00;99285.09;5082198;27;45445;-67
2023/10/29 05:44:57;;;;;;;;;1.33;0.33;;;;;12.33;100.00;99317.00;5081823;27;46219;-67
2023/10/29 05:47:23;;;;;;;;;3.67;1.00;;;;;12.28;100.00;99308.56;5082094;27;45332;-67
2023/10/29 05:49:48;;;;;;;;;3.00;1.00;;;;;12.30;100.00;99318.06;5082108;27;45219;-67
2023/10/29 05:52:14;;;;;;;;;2.00;0.00;;;;;12.32;100.00;99323.28;5082266;27;45457;-67
2023/10/29 05:54:39;;;;;;;;;3.00;1.00;;;;;12.24;100.00;99321.22;5080808;28;48138;-67
2023/10/29 05:57:05;;;;;;;;;1.00;1.00;;;;;12.19;100.00;99317.22;5081898;27;45388;-67
2023/10/29 05:59:32;;;;;;;;;3.00;1.00;;;;;12.29;100.00;99328.81;5081529;27;45286;-68
2023/10/29 06:01:58;;;;;;;;;2.33;0.00;;;;;12.26;100.00;99316.66;5082019;28;45269;-67
2023/10/29 06:04:23;;;;;;;;;1.00;0.00;;;;;12.01;100.00;99277.94;5081528;27;45253;-67
2023/10/29 06:06:49;;;;;;;;;3.00;0.00;;;;;12.23;100.00;99314.25;5081865;27;45278;-67
2023/10/29 06:09:14;;;;;;;;;1.00;1.00;;;;;12.19;100.00;99309.28;5080770;28;45407;-67
2023/10/29 06:11:41;;;;;;;;;4.33;1.00;;;;;12.18;100.00;99320.84;5080712;27;45266;-67
2023/10/29 06:14:07;;;;;;;;;2.00;0.00;;;;;12.06;100.00;99324.44;5094703;27;45347;-67
2023/10/29 06:16:32;;;;;;;;;2.33;1.00;;;;;12.13;100.00;99328.31;5101831;27;45381;-67
2023/10/29 06:18:58;;;;;;;;;0.00;0.00;;;;;12.14;100.00;99337.97;5102050;27;45417;-67
2023/10/29 06:21:23;;;;;;;;;1.67;1.00;;;;;12.15;100.00;99335.19;5102060;27;45230;-67
2023/10/29 06:23:49;;;;;;;;;2.33;1.00;;;;;12.14;100.00;99333.47;5101917;27;46272;-67
2023/10/29 06:26:15;;;;;;;;;2.33;1.00;;;;;12.15;100.00;99342.28;5102097;27;45308;-67
2023/10/29 06:28:41;;;;;;;;;0.67;0.67;;;;;12.01;100.00;99317.69;5100804;27;45319;-67
2023/10/29 06:31:07;;;;;;;;;2.67;1.00;;;;;12.19;100.00;99349.88;5101879;27;45258;-67
2023/10/29 06:33:32;;;;;;;;;3.33;1.00;;;;;12.19;100.00;99341.09;5100381;27;45310;-67
2023/10/29 06:36:00;;;;;;;;;3.00;1.67;;;;;12.14;100.00;99327.34;5101995;27;45266;-67
2023/10/29 06:38:25;;;;;;;;;4.33;1.33;;;;;12.23;100.00;99338.09;5100904;27;45276;-67
2023/10/29 06:40:51;;;;;;;;;1.33;0.00;;;;;12.27;100.00;99350.13;5101719;27;45197;-67
2023/10/29 06:43:17;;;;;;;;;1.33;1.00;;;;;12.27;100.00;99349.31;5101661;27;45947;-67
2023/10/29 06:45:42;;;;;;;;;4.33;2.00;;;;;12.25;100.00;99352.06;5100489;27;45844;-67
2023/10/29 06:48:10;;;;;;;;;0.00;0.00;;;;;12.13;100.00;99341.56;5102065;27;45537;-67
2023/10/29 06:50:36;;;;;;;;;3.67;1.00;;;;;12.26;100.00;99358.22;5101610;27;45305;-67
2023/10/29 06:53:02;;;;;;;;;2.00;1.33;;;;;12.26;100.00;99352.91;5101544;27;46116;-67
2023/10/29 06:55:27;;;;;;;;;2.00;1.33;;;;;12.26;100.00;99356.41;5101363;27;45264;-67
2023/10/29 06:57:53;;;;;;;;;1.00;1.00;;;;;12.31;100.00;99383.41;5101396;27;45305;-67
2023/10/29 07:00:19;;;;;;;;;1.67;0.67;;;;;12.33;100.00;99376.19;5101268;27;45282;-67
2023/10/29 07:02:44;;;;;;;;;0.00;0.00;;;;;12.35;100.00;99368.09;5101306;27;45265;-67
2023/10/29 07:05:10;;;;;;;;;4.00;1.00;;;;;12.28;100.00;99358.94;5100298;27;45334;-67
2023/10/29 07:07:35;;;;;;;;;0.67;0.00;;;;;12.25;100.00;99365.31;5101497;27;45272;-67
2023/10/29 07:10:04;;;;;;;;;4.33;1.33;;;;;12.33;100.00;99381.50;5101120;27;45505;-67
2023/10/29 07:12:31;;;;;;;;;1.67;1.00;;;;;12.38;100.00;99379.31;5101080;27;46353;-67
2023/10/29 07:14:59;;;;;;;;;2.00;1.00;;;;;12.46;100.00;99384.88;5079178;28;45245;-67
2023/10/29 07:17:24;;;;;;;;;2.33;1.00;;;;;12.49;100.00;99370.53;5080828;27;45300;-67
2023/10/29 07:19:54;;;;;;;;;3.00;1.00;;;;;12.33;100.00;99343.53;5080501;27;45560;-67
2023/10/29 07:22:20;;;;;;;;;4.00;2.00;;;;;12.60;100.00;99375.00;5080450;27;47029;-67
2023/10/29 07:24:46;;;;;;;;;0.00;0.00;;;;;12.67;100.00;99385.00;5080521;27;45557;-67
2023/10/29 07:27:11;;;;;;;;;3.00;0.00;;;;;12.74;100.00;99380.91;5080682;27;45377;-67
2023/10/29 07:29:37;;;;;;;;;3.67;0.00;;;;;12.76;100.00;99368.34;5080597;27;45474;-67
2023/10/29 07:32:03;;;;;;;;;5.33;1.00;;;;;12.81;100.00;99352.94;5080571;27;46110;-67
2023/10/29 07:34:28;;;;;;;;;1.00;1.00;;;;;12.89;100.00;99355.81;5080246;27;45243;-67
2023/10/29 07:36:53;;;;;;;;;1.00;0.00;;;;;12.96;100.00;99350.84;5079745;28;45179;-67
2023/10/29 07:39:19;;;;;;;;;3.67;1.00;;;;;13.04;100.00;99343.97;5080338;27;45261;-67
2023/10/29 07:41:44;;;;;;;;;2.00;1.33;;;;;12.94;100.00;99340.38;5080508;27;45269;-67
2023/10/29 07:44:10;;;;;;;;;1.33;0.33;;;;;13.04;100.00;99343.97;5080305;27;45274;-67
2023/10/29 07:46:35;;;;;;;;;1.00;1.00;;;;;13.15;100.00;99358.25;5080378;27;45306;-67
2023/10/29 07:49:01;;;;;;;;;3.00;1.00;;;;;13.10;100.00;99331.19;5080280;27;45412;-67
2023/10/29 07:51:27;;;;;;;;;0.00;0.00;;;;;13.19;100.00;99330.44;5080044;27;45858;-68
2023/10/29 07:53:53;;;;;;;;;2.00;1.00;;;;;13.14;100.00;99319.38;5080240;27;45384;-67
2023/10/29 07:56:20;;;;;;;;;1.00;0.00;;;;;13.16;100.00;99325.41;5080316;27;45303;-67
2023/10/29 07:58:46;;;;;;;;;2.00;1.00;;;;;13.30;100.00;99346.38;5080053;27;45535;-67
2023/10/29 08:01:12;;;;;;;;;3.00;1.00;;;;;13.35;100.00;99344.19;5080018;27;46040;-67
2023/10/29 08:03:42;;;;;;;;;3.00;1.00;;;;;13.37;100.00;99336.94;5082227;28;45401;-68
2023/10/29 08:06:08;;;;;;;;;2.00;0.33;;;;;13.40;100.00;99345.50;5083869;27;45431;-67
2023/10/29 08:08:34;;;;;;;;;1.00;1.00;;;;;13.45;100.00;99355.72;5083753;28;45306;-67
2023/10/29 08:10:59;;;;;;;;;5.33;4.33;;;;;13.42;100.00;99359.47;5082365;28;46897;-67
2023/10/29 08:13:25;;;;;;;;;2.33;2.00;;;;;13.27;100.00;99336.84;5090888;27;45291;-68
2023/10/29 08:15:50;;;;;;;;;0.33;0.33;;;;;13.49;100.00;99352.69;5102743;27;45360;-68
2023/10/29 08:18:16;;;;;;;;;2.00;1.00;;;;;13.58;100.00;99362.56;5104023;27;45238;-68
2023/10/29 08:20:41;;;;;;;;;2.00;0.67;;;;;13.63;100.00;99366.66;5103772;27;46470;-68
2023/10/29 08:23:07;;;;;;;;;2.00;2.00;;;;;13.67;100.00;99358.31;5104221;27;45399;-68
2023/10/29 08:25:39;;;;;;;;;1.33;1.33;;;;;13.62;100.00;99351.69;5103077;27;45411;-68
2023/10/29 08:28:10;;;;;;;;;4.33;1.00;;;;;13.79;100.00;99369.72;5102752;27;45492;-68
2023/10/29 08:30:35;;;;;;;;;1.00;0.00;;;;;13.81;100.00;99360.66;5103647;27;45484;-68
2023/10/29 08:33:01;;;;;;;;;1.00;1.00;;;;;13.78;100.00;99349.44;5103713;27;45297;-68
2023/10/29 08:35:27;;;;;;;;;3.00;1.33;;;;;13.76;100.00;99346.94;5103808;27;45239;-68
2023/10/29 08:37:53;;;;;;;;;3.00;0.33;;;;;13.85;100.00;99362.09;5103916;27;45341;-67
2023/10/29 08:40:18;;;;;;;;;1.00;1.00;;;;;13.90;100.00;99370.53;5103544;27;45254;-67
2023/10/29 08:42:44;;;;;;;;;2.00;1.00;;;;;13.89;100.00;99384.78;5103433;27;45302;-67
2023/10/29 08:45:09;;;;;;;;;1.00;1.00;;;;;13.74;100.00;99375.44;5103770;27;45265;-67
2023/10/29 08:47:35;;;;;;;;;1.00;1.00;;;;;13.86;100.00;99408.97;5103359;27;45309;-67
2023/10/29 08:50:00;;;;;;;;;1.00;1.00;;;;;13.84;100.00;99386.16;5119654;27;48340;-67
2023/10/29 08:52:26;;;;;;;;;2.00;1.00;;;;;13.81;100.00;99376.59;5103247;27;45270;-67
2023/10/29 08:54:51;;;;;;;;;1.00;1.00;;;;;13.72;100.00;99368.56;5103880;27;45440;-67
2023/10/29 08:57:19;;;;;;;;;2.00;0.67;;;;;13.83;100.00;99356.06;5103053;27;45476;-67
2023/10/29 08:59:45;;;;;;;;;1.00;1.00;;;;;13.88;100.00;99359.19;5102434;27;45857;-67
2023/10/29 09:02:10;;;;;;;;;1.00;0.00;;;;;13.93;100.00;99364.97;5103273;27;45357;-67
2023/10/29 09:04:39;;;;;;;;;0.00;0.00;;;;;14.02;100.00;99347.41;5103519;27;45323;-67
2023/10/29 09:07:05;;;;;;;;;2.00;0.00;;;;;14.08;100.00;99329.09;5103242;27;45248;-67
2023/10/29 09:09:31;;;;;;;;;0.00;0.00;;;;;14.18;100.00;99344.28;5103208;27;46485;-67
2023/10/29 09:11:59;;;;;;;;;0.00;0.00;;;;;14.26;100.00;99342.66;5103094;27;45396;-67
2023/10/29 09:14:24;;;;;;;;;0.00;0.00;;;;;14.33;100.00;99332.34;5085826;27;45184;-67
2023/10/29 09:16:50;;;;;;;;;0.00;0.00;;;;;14.38;100.00;99319.50;5082195;27;45444;-67
2023/10/29 09:19:16;;;;;;;;;0.00;0.00;;;;;14.32;100.00;99304.91;5082582;27;46063;-67
2023/10/29 09:21:41;;;;;;;;;1.00;1.00;;;;;14.47;100.00;99303.59;5082492;27;45239;-67
2023/10/29 09:24:07;;;;;;;;;1.00;1.00;;;;;14.45;100.00;99263.00;5082664;27;45246;-67
2023/10/29 09:26:36;;;;;;;;;0.00;0.00;;;;;14.56;100.00;99292.13;5082534;28;45435;-67
2023/10/29 09:29:02;;;;;;;;;1.00;0.00;;;;;14.51;100.00;99314.81;5081333;28;46637;-67
2023/10/29 09:31:28;;;;;;;;;1.00;0.00;;;;;14.45;100.00;99299.38;5082434;27;45233;-67
2023/10/29 09:33:54;;;;;;;;;0.00;0.00;;;;;14.30;100.00;99280.22;5082719;28;45308;-67
2023/10/29 09:36:20;;;;;;;;;0.00;0.00;;;;;14.37;100.00;99299.19;5082365;27;45252;-66
2023/10/29 09:38:45;;;;;;;;;0.00;0.00;;;;;14.31;100.00;99316.50;5082363;27;45273;-66
2023/10/29 09:41:11;;;;;;;;;0.00;0.00;;;;;14.38;100.00;99327.50;5082256;27;45218;-66
2023/10/29 09:43:43;;;;;;;;;0.00;0.00;;;;;14.41;100.00;99341.38;5082382;27;45457;-66
2023/10/29 09:46:10;;;;;;;;;0.00;0.00;;;;;14.26;100.00;99318.72;5082294;27;45250;-66
2023/10/29 09:48:42;;;;;;;;;0.67;0.00;;;;;14.35;100.00;99312.66;5082251;27;45945;-67
2023/10/29 09:51:07;;;;;;;;;0.00;0.00;;;;;14.32;100.00;99318.19;5082161;27;45305;-67
2023/10/29 09:53:36;;;;;;;;;0.00;0.00;;;;;14.27;100.00;99327.53;5082237;28;45254;-66
2023/10/29 09:56:05;;;;;;;;;0.00;0.00;;;;;14.08;100.00;99307.84;5082156;27;45311;-66
2023/10/29 09:58:34;;;;;;;;;0.00;0.00;;;;;14.11;100.00;99314.69;5081804;27;45317;-66
2023/10/29 10:01:01;;;;;;;;;0.00;0.00;;;;;14.24;100.00;99323.31;5081919;27;45310;-67
2023/10/29 10:03:27;;;;;;;;;2.00;0.00;;;;;14.30;100.00;99321.97;5081990;27;45427;-66
2023/10/29 10:05:54;;;;;;;;;1.33;0.00;;;;;14.30;100.00;99314.00;5082087;27;45325;-67
2023/10/29 10:08:30;;;;;;;;;0.00;0.00;;;;;14.42;100.00;99321.78;5081588;27;45936;-67
2023/10/29 10:10:56;;;;;;;;;0.00;0.00;;;;;14.48;100.00;99318.59;5081818;27;45358;-67
2023/10/29 10:13:39;;;;;;;;;0.00;0.00;;;;;14.54;100.00;99320.72;5088521;27;45356;-67
2023/10/29 10:16:12;;;;;;;;;0.00;0.00;;;;;14.65;100.00;99327.75;5101825;27;45394;-67
2023/10/29 10:18:50;;;;;;;;;0.00;0.00;;;;;14.72;100.00;99331.59;5100780;27;47357;-67
2023/10/29 10:21:20;;;;;;;;;0.33;0.00;;;;;14.72;100.00;99323.59;5102106;27;45374;-66
2023/10/29 10:23:50;;;;;;;;;0.00;0.00;;;;;14.78;100.00;99312.41;5102283;27;45195;-67
2023/10/29 10:26:26;;;;;;;;;0.00;0.00;;;;;14.78;100.00;99311.56;5101761;27;45300;-67
2023/10/29 10:29:00;;;;;;;;;0.00;0.00;;;;;14.77;100.00;99294.75;5101902;27;45668;-67
2023/10/29 10:31:27;;;;;;;;;0.00;0.00;;;;;14.68;100.00;99308.88;5101848;27;45292;-67
2023/10/29 10:34:09;;;;;;;;;1.00;0.00;;;;;14.61;100.00;99278.44;5100812;27;45190;-67
2023/10/29 10:36:34;;;;;;;;;0.33;0.00;;;;;14.74;100.00;99294.16;5101878;27;45283;-67
2023/10/29 10:39:00;;;;;;;;;0.00;0.00;;;;;14.76;100.00;99294.88;5101725;27;46151;-67
2023/10/29 10:41:38;;;;;;;;;0.00;0.00;;;;;14.78;100.00;99285.78;5101912;27;45407;-67
2023/10/29 10:44:10;;;;;;;;;1.00;0.00;;;;;14.89;100.00;99309.63;5100772;27;45323;-67
2023/10/29 10:46:40;;;;;;;;;0.00;0.00;;;;;14.98;100.00;99313.31;5101691;27;45381;-67
2023/10/29 10:49:07;;;;;;;;;3.00;0.00;;;;;14.82;100.00;99295.16;5101634;27;46145;-67
2023/10/29 10:51:35;;;;;;;;;0.00;0.00;;;;;15.01;100.00;99303.22;5100665;27;45239;-67
2023/10/29 10:54:02;;;;;;;;;1.00;0.00;;;;;15.03;100.00;99293.28;5101637;27;45379;-67
2023/10/29 10:56:36;;;;;;;;;0.00;0.00;;;;;15.09;100.00;99298.03;5101615;27;45479;-67
2023/10/29 10:59:09;;;;;;;;;0.00;0.00;;;;;15.04;100.00;99284.31;5101020;27;46142;-67
2023/10/29 11:01:36;;;;;;;;;0.00;0.00;;;;;15.21;100.00;99293.44;5101521;27;45318;-67
2023/10/29 11:04:03;;;;;;;;;0.00;0.00;;;;;15.22;100.00;99304.91;5101416;27;45395;-67
2023/10/29 11:06:32;;;;;;;;;0.00;0.00;;;;;15.27;100.00;99313.34;5100396;27;45563;-67
2023/10/29 11:08:59;;;;;;;;;0.00;0.00;;;;;15.37;100.00;99320.38;5101224;27;46069;-67
2023/10/29 11:11:41;;;;;;;;;0.00;0.00;;;;;15.45;100.00;99301.03;5100191;27;45336;-67
2023/10/29 11:14:17;;;;;;;;;2.00;0.67;;;;;15.40;100.00;99295.28;5087487;27;45229;-67
2023/10/29 11:16:56;;;;;;;;;0.00;0.00;;;;;15.54;100.00;99316.22;5080593;27;45379;-67
2023/10/29 11:19:34;;;;;;;;;0.00;0.00;;;;;15.64;100.00;99311.72;5080217;27;45375;-67
2023/10/29 11:22:19;;;;;;;;;0.67;0.00;;;;;15.61;100.00;99304.00;5079605;28;45595;-67